createdAt,value
2016-02-13T00:00:20.973Z,6.3
2016-02-13T00:01:21.006Z,6.31
2016-02-13T00:02:20.994Z,6.28
2016-02-13T00:03:21.012Z,6.17
2016-02-13T00:04:21.032Z,6.28
2016-02-13T00:05:21.050Z,6.26
2016-02-13T00:06:21.068Z,6.19
2016-02-13T00:07:21.086Z,6.24
2016-02-13T00:08:21.104Z,6.26
2016-02-13T00:09:21.106Z,6.14
2016-02-13T00:10:21.144Z,6.2
2016-02-13T00:11:21.146Z,6.24
2016-02-13T00:12:21.180Z,6.17
2016-02-13T00:13:21.182Z,6.17
2016-02-13T00:14:21.200Z,6.09
2016-02-13T00:15:21.203Z,6.11
2016-02-13T00:16:21.253Z,6.17
2016-02-13T00:17:21.240Z,6.16
2016-02-13T00:18:21.245Z,6.2
2016-02-13T00:19:21.278Z,6.08
2016-02-13T00:20:21.312Z,6.17
2016-02-13T00:21:21.315Z,6.16
2016-02-13T00:22:21.336Z,6.17
2016-02-13T00:23:21.339Z,6.2
2016-02-13T00:24:21.357Z,6.12
2016-02-13T00:25:21.359Z,6.2
2016-02-13T00:26:21.393Z,6.07
2016-02-13T00:27:21.399Z,6.02
2016-02-13T00:28:21.416Z,6.04
2016-02-13T00:29:21.435Z,6.05
2016-02-13T00:30:21.452Z,6.05
2016-02-13T00:31:21.471Z,6.05
2016-02-13T00:32:21.490Z,6.05
2016-02-13T00:33:21.492Z,6.04
2016-02-13T00:34:21.526Z,6.02
2016-02-13T00:35:21.529Z,6.05
2016-02-13T00:36:21.548Z,5.99
2016-02-13T00:37:21.551Z,5.97
2016-02-13T00:38:21.569Z,6.01
2016-02-13T00:39:21.588Z,6.08
2016-02-13T00:40:21.590Z,5.97
2016-02-13T00:41:21.624Z,5.99
2016-02-13T00:42:21.627Z,5.94
2016-02-13T00:43:21.661Z,5.94
2016-02-13T00:44:21.664Z,6.02
2016-02-13T00:45:21.699Z,5.98
2016-02-13T00:46:21.685Z,5.98
2016-02-13T00:47:21.719Z,6.01
2016-02-13T00:48:21.722Z,5.97
2016-02-13T00:49:21.740Z,6.07
2016-02-13T00:50:21.805Z,5.94
2016-02-13T00:51:21.777Z,6.02
2016-02-13T00:52:21.810Z,5.93
2016-02-13T00:53:21.814Z,5.91
2016-02-13T00:54:21.821Z,5.97
2016-02-13T00:55:21.823Z,5.97
2016-02-13T00:56:21.847Z,5.91
2016-02-13T00:57:21.865Z,5.94
2016-02-13T00:58:21.884Z,5.98
2016-02-13T00:59:21.902Z,5.94
2016-02-13T01:00:21.936Z,5.84
2016-02-13T01:01:21.923Z,5.93
2016-02-13T01:02:21.975Z,5.9
2016-02-13T01:03:21.962Z,5.93
2016-02-13T01:04:21.980Z,5.83
2016-02-13T01:05:22.014Z,5.9
2016-02-13T01:06:21.284Z,5.99
2016-02-13T01:07:22.067Z,5.93
2016-02-13T01:08:22.039Z,5.94
2016-02-13T01:09:22.072Z,5.83
2016-02-13T01:10:22.059Z,5.89
2016-02-13T01:11:22.094Z,5.9
2016-02-13T01:12:22.097Z,5.9
2016-02-13T01:13:22.131Z,5.86
2016-02-13T01:14:22.133Z,5.93
2016-02-13T01:15:22.151Z,5.87
2016-02-13T01:16:22.169Z,5.83
2016-02-13T01:17:22.188Z,5.87
2016-02-13T01:18:22.197Z,5.86
2016-02-13T01:19:22.232Z,5.87
2016-02-13T01:20:22.234Z,5.84
2016-02-13T01:21:22.267Z,5.89
2016-02-13T01:22:22.272Z,5.86
2016-02-13T01:23:22.275Z,5.73
2016-02-13T01:24:22.293Z,5.82
2016-02-13T01:25:22.296Z,5.79
2016-02-13T01:26:25.361Z,5.79
2016-02-13T01:27:22.332Z,5.76
2016-02-13T01:28:22.351Z,5.76
2016-02-13T01:29:22.369Z,5.76
2016-02-13T01:30:22.372Z,5.8
2016-02-13T01:31:22.391Z,5.79
2016-02-13T01:32:22.425Z,5.76
2016-02-13T01:33:22.428Z,5.79
2016-02-13T01:34:22.462Z,5.8
2016-02-13T01:35:22.480Z,5.73
2016-02-13T01:36:22.483Z,5.73
2016-02-13T01:37:22.485Z,5.76
2016-02-13T01:38:22.504Z,5.82
2016-02-13T01:39:22.539Z,5.76
2016-02-13T01:40:22.542Z,5.73
2016-02-13T01:41:22.559Z,5.73
2016-02-13T01:42:22.578Z,5.75
2016-02-13T01:43:22.581Z,5.71
2016-02-13T01:44:22.615Z,5.68
2016-02-13T01:45:22.618Z,5.73
2016-02-13T01:46:22.636Z,5.72
2016-02-13T01:47:22.669Z,5.72
2016-02-13T01:48:22.673Z,5.71
2016-02-13T01:49:22.676Z,5.72
2016-02-13T01:50:22.694Z,5.69
2016-02-13T01:51:22.712Z,5.73
2016-02-13T01:52:22.731Z,5.72
2016-02-13T01:53:22.749Z,5.75
2016-02-13T01:54:22.755Z,5.69
2016-02-13T01:55:22.789Z,5.64
2016-02-13T01:56:22.792Z,5.65
2016-02-13T01:57:22.795Z,5.65
2016-02-13T01:58:22.813Z,5.72
2016-02-13T01:59:22.848Z,5.64
2016-02-13T02:00:22.850Z,5.65
2016-02-13T02:01:22.884Z,5.72
2016-02-13T02:02:22.887Z,5.71
2016-02-13T02:03:22.890Z,5.69
2016-02-13T02:04:22.784Z,5.59
2016-02-13T02:05:22.928Z,5.65
2016-02-13T02:06:22.931Z,5.66
2016-02-13T02:07:22.950Z,5.62
2016-02-13T02:08:22.967Z,5.59
2016-02-13T02:09:23.002Z,5.59
2016-02-13T02:10:22.988Z,5.61
2016-02-13T02:11:23.022Z,5.62
2016-02-13T02:12:23.024Z,5.61
2016-02-13T02:13:23.044Z,5.62
2016-02-13T02:14:23.062Z,5.57
2016-02-13T02:15:23.080Z,5.57
2016-02-13T02:16:23.099Z,5.57
2016-02-13T02:17:23.116Z,5.59
2016-02-13T02:18:23.119Z,5.56
2016-02-13T02:19:23.154Z,5.5
2016-02-13T02:20:23.156Z,5.64
2016-02-13T02:21:23.031Z,5.56
2016-02-13T02:22:23.174Z,5.62
2016-02-13T02:23:23.196Z,5.51
2016-02-13T02:24:23.214Z,5.5
2016-02-13T02:25:23.216Z,5.47
2016-02-13T02:26:23.251Z,5.61
2016-02-13T02:27:23.255Z,5.51
2016-02-13T02:28:23.272Z,5.5
2016-02-13T02:29:23.291Z,5.53
2016-02-13T02:30:23.310Z,5.54
2016-02-13T02:31:23.312Z,5.48
2016-02-13T02:32:23.190Z,5.5
2016-02-13T02:33:23.349Z,5.48
2016-02-13T02:34:23.383Z,5.43
2016-02-13T02:35:23.385Z,5.43
2016-02-13T02:36:23.404Z,5.43
2016-02-13T02:37:23.407Z,5.47
2016-02-13T02:38:23.441Z,5.48
2016-02-13T02:39:23.443Z,5.46
2016-02-13T02:40:23.462Z,5.48
2016-02-13T02:41:23.464Z,5.5
2016-02-13T02:42:23.481Z,5.44
2016-02-13T02:43:23.503Z,5.47
2016-02-13T02:44:23.536Z,5.47
2016-02-13T02:45:23.523Z,5.39
2016-02-13T02:46:23.558Z,5.41
2016-02-13T02:47:23.560Z,5.43
2016-02-13T02:48:23.594Z,5.41
2016-02-13T02:49:23.597Z,5.46
2016-02-13T02:50:23.615Z,5.41
2016-02-13T02:51:23.618Z,5.41
2016-02-13T02:52:23.667Z,5.38
2016-02-13T02:53:23.655Z,5.39
2016-02-13T02:54:23.673Z,5.44
2016-02-13T02:55:23.678Z,5.39
2016-02-13T02:56:23.696Z,5.44
2016-02-13T02:57:23.699Z,5.39
2016-02-13T02:58:23.749Z,5.38
2016-02-13T02:59:23.752Z,5.39
2016-02-13T03:00:23.769Z,5.46
2016-02-13T03:01:23.789Z,5.35
2016-02-13T03:02:23.635Z,5.48
2016-02-13T03:03:23.795Z,5.35
2016-02-13T03:04:23.829Z,5.32
2016-02-13T03:05:23.831Z,5.3
2016-02-13T03:06:23.833Z,5.36
2016-02-13T03:07:23.868Z,5.29
2016-02-13T03:08:23.933Z,5.3
2016-02-13T03:09:23.890Z,5.3
2016-02-13T03:10:23.940Z,5.29
2016-02-13T03:11:23.958Z,5.32
2016-02-13T03:12:23.929Z,5.46
2016-02-13T03:13:23.947Z,5.29
2016-02-13T03:14:23.985Z,5.32
2016-02-13T03:15:23.987Z,5.3
2016-02-13T03:16:24.005Z,5.32
2016-02-13T03:17:24.039Z,5.35
2016-02-13T03:18:24.044Z,5.33
2016-02-13T03:19:24.046Z,5.3
2016-02-13T03:20:24.071Z,5.36
2016-02-13T03:21:24.075Z,5.38
2016-02-13T03:22:24.093Z,5.36
2016-02-13T03:23:24.111Z,5.33
2016-02-13T03:24:24.113Z,5.33
2016-02-13T03:25:24.131Z,5.33
2016-02-13T03:26:24.152Z,5.33
2016-02-13T03:27:24.156Z,5.29
2016-02-13T03:28:24.174Z,5.33
2016-02-13T03:29:24.192Z,5.35
2016-02-13T03:30:24.210Z,5.26
2016-02-13T03:31:24.214Z,5.26
2016-02-13T03:32:24.247Z,5.29
2016-02-13T03:33:24.250Z,5.25
2016-02-13T03:34:24.268Z,5.29
2016-02-13T03:35:24.286Z,5.25
2016-02-13T03:36:24.305Z,5.29
2016-02-13T03:37:24.308Z,5.29
2016-02-13T03:38:24.326Z,5.23
2016-02-13T03:39:24.344Z,5.25
2016-02-13T03:40:24.363Z,5.17
2016-02-13T03:41:24.366Z,5.2
2016-02-13T03:42:24.379Z,5.2
2016-02-13T03:43:24.386Z,5.2
2016-02-13T03:44:24.376Z,5.17
2016-02-13T03:45:24.397Z,5.23
2016-02-13T03:46:24.389Z,5.26
2016-02-13T03:47:24.416Z,5.15
2016-02-13T03:48:24.415Z,5.2
2016-02-13T03:49:24.428Z,5.3
2016-02-13T03:50:24.536Z,5.25
2016-02-13T03:51:24.456Z,5.25
2016-02-13T03:52:24.455Z,5.2
2016-02-13T03:53:24.457Z,5.29
2016-02-13T03:54:24.537Z,5.18
2016-02-13T03:55:24.491Z,5.25
2016-02-13T03:56:24.507Z,5.21
2016-02-13T03:57:24.524Z,5.17
2016-02-13T03:58:24.558Z,5.2
2016-02-13T03:59:24.546Z,5.2
2016-02-13T04:00:24.562Z,5.15
2016-02-13T04:01:24.580Z,5.2
2016-02-13T04:02:24.582Z,5.21
2016-02-13T04:03:24.616Z,5.2
2016-02-13T04:04:24.620Z,5.18
2016-02-13T04:05:24.654Z,5.2
2016-02-13T04:06:23.891Z,5.14
2016-02-13T04:07:24.541Z,5.1
2016-02-13T04:08:24.692Z,5.18
2016-02-13T04:09:25.180Z,5.2
2016-02-13T04:10:24.750Z,5.15
2016-02-13T04:11:24.769Z,5.1
2016-02-13T04:12:24.740Z,5.14
2016-02-13T04:13:24.758Z,5.12
2016-02-13T04:14:24.760Z,5.08
2016-02-13T04:15:24.810Z,5.05
2016-02-13T04:16:24.799Z,5.07
2016-02-13T04:17:24.816Z,5.08
2016-02-13T04:18:24.834Z,5.1
2016-02-13T04:19:24.857Z,5.04
2016-02-13T04:20:24.860Z,5.05
2016-02-13T04:21:24.879Z,5.11
2016-02-13T04:22:24.881Z,5.07
2016-02-13T04:23:24.900Z,5.11
2016-02-13T04:24:24.965Z,5.02
2016-02-13T04:25:24.921Z,5.05
2016-02-13T04:26:24.798Z,5.07
2016-02-13T04:27:24.817Z,5
2016-02-13T04:28:24.975Z,5
2016-02-13T04:29:24.992Z,4.96
2016-02-13T04:30:24.994Z,5.05
2016-02-13T04:31:25.044Z,5.02
2016-02-13T04:32:25.032Z,4.99
2016-02-13T04:33:25.066Z,4.99
2016-02-13T04:34:25.053Z,4.97
2016-02-13T04:35:25.071Z,4.92
2016-02-13T04:36:25.090Z,5.04
2016-02-13T04:37:25.107Z,4.89
2016-02-13T04:38:25.126Z,4.96
2016-02-13T04:39:25.146Z,5.04
2016-02-13T04:40:25.149Z,4.9
2016-02-13T04:41:25.166Z,5.07
2016-02-13T04:42:25.233Z,5.05
2016-02-13T04:43:25.189Z,5.02
2016-02-13T04:44:25.223Z,4.94
2016-02-13T04:45:25.225Z,4.93
2016-02-13T04:46:25.244Z,4.94
2016-02-13T04:47:25.246Z,4.93
2016-02-13T04:48:25.267Z,4.96
2016-02-13T04:49:25.285Z,4.9
2016-02-13T04:50:25.319Z,5.02
2016-02-13T04:51:25.308Z,4.96
2016-02-13T04:52:25.342Z,4.93
2016-02-13T04:53:25.344Z,4.93
2016-02-13T04:54:25.363Z,4.94
2016-02-13T04:55:25.381Z,4.97
2016-02-13T04:56:25.400Z,4.87
2016-02-13T04:57:25.402Z,4.97
2016-02-13T04:58:25.422Z,4.84
2016-02-13T04:59:25.424Z,4.87
2016-02-13T05:00:25.445Z,4.89
2016-02-13T05:01:25.447Z,4.8
2016-02-13T05:02:25.497Z,4.87
2016-02-13T05:03:25.483Z,4.89
2016-02-13T05:04:25.518Z,4.86
2016-02-13T05:05:25.505Z,4.87
2016-02-13T05:06:25.539Z,4.89
2016-02-13T05:07:25.557Z,4.86
2016-02-13T05:08:25.563Z,4.92
2016-02-13T05:09:25.597Z,4.84
2016-02-13T05:10:25.583Z,4.86
2016-02-13T05:11:25.633Z,4.84
2016-02-13T05:12:25.620Z,4.9
2016-02-13T05:13:25.622Z,4.86
2016-02-13T05:14:25.657Z,4.87
2016-02-13T05:15:25.675Z,4.8
2016-02-13T05:16:25.693Z,4.84
2016-02-13T05:17:25.713Z,4.86
2016-02-13T05:18:25.701Z,4.82
2016-02-13T05:19:25.735Z,4.84
2016-02-13T05:20:25.737Z,4.86
2016-02-13T05:21:25.757Z,4.77
2016-02-13T05:22:25.790Z,4.86
2016-02-13T05:23:25.793Z,4.86
2016-02-13T05:24:25.796Z,4.77
2016-02-13T05:25:25.798Z,4.78
2016-02-13T05:26:25.835Z,4.82
2016-02-13T05:27:25.837Z,4.78
2016-02-13T05:28:25.856Z,4.86
2016-02-13T05:29:25.923Z,4.86
2016-02-13T05:30:25.895Z,4.68
2016-02-13T05:31:25.882Z,4.75
2016-02-13T05:32:25.931Z,4.7
2016-02-13T05:33:25.935Z,4.63
2016-02-13T05:34:25.940Z,4.66
2016-02-13T05:35:25.959Z,4.63
2016-02-13T05:36:25.961Z,4.68
2016-02-13T05:37:25.995Z,4.7
2016-02-13T05:38:25.998Z,4.74
2016-02-13T05:39:26.017Z,4.67
2016-02-13T05:40:26.019Z,4.62
2016-02-13T05:41:26.053Z,4.63
2016-02-13T05:42:26.055Z,4.74
2016-02-13T05:43:26.075Z,4.7
2016-02-13T05:44:26.092Z,4.74
2016-02-13T05:45:26.111Z,4.7
2016-02-13T05:46:26.113Z,4.75
2016-02-13T05:47:26.131Z,4.75
2016-02-13T05:48:26.150Z,4.71
2016-02-13T05:49:26.153Z,4.7
2016-02-13T05:50:26.171Z,4.68
2016-02-13T05:51:26.189Z,4.7
2016-02-13T05:52:26.224Z,4.74
2016-02-13T05:53:26.211Z,4.7
2016-02-13T05:54:26.244Z,4.63
2016-02-13T05:55:26.249Z,4.75
2016-02-13T05:56:26.268Z,4.66
2016-02-13T05:57:26.270Z,4.73
2016-02-13T05:58:26.287Z,4.74
2016-02-13T05:59:26.306Z,4.6
2016-02-13T06:00:26.311Z,4.62
2016-02-13T06:01:26.330Z,4.62
2016-02-13T06:02:26.363Z,4.66
2016-02-13T06:03:26.366Z,4.56
2016-02-13T06:04:26.383Z,4.7
2016-02-13T06:05:26.387Z,4.74
2016-02-13T06:06:26.421Z,4.67
2016-02-13T06:07:26.424Z,4.71
2016-02-13T06:08:26.458Z,4.53
2016-02-13T06:09:26.446Z,4.56
2016-02-13T06:10:26.481Z,4.56
2016-02-13T06:11:26.483Z,4.56
2016-02-13T06:12:26.487Z,4.62
2016-02-13T06:13:26.506Z,4.56
2016-02-13T06:14:26.524Z,4.62
2016-02-13T06:15:26.527Z,4.59
2016-02-13T06:16:26.545Z,4.6
2016-02-13T06:17:26.564Z,4.58
2016-02-13T06:18:26.597Z,4.6
2016-02-13T06:19:26.600Z,4.59
2016-02-13T06:20:26.619Z,4.63
2016-02-13T06:21:26.621Z,4.56
2016-02-13T06:22:26.639Z,4.62
2016-02-13T06:23:26.674Z,4.58
2016-02-13T06:24:26.660Z,4.58
2016-02-13T06:25:26.679Z,4.55
2016-02-13T06:26:26.697Z,4.55
2016-02-13T06:27:26.747Z,4.58
2016-02-13T06:28:26.719Z,4.56
2016-02-13T06:29:26.737Z,4.59
2016-02-13T06:30:26.744Z,4.6
2016-02-13T06:31:26.761Z,4.55
2016-02-13T06:32:26.780Z,4.58
2016-02-13T06:33:26.797Z,4.59
2016-02-13T06:34:26.661Z,4.55
2016-02-13T06:35:26.835Z,4.56
2016-02-13T06:36:26.838Z,4.56
2016-02-13T06:37:26.840Z,4.62
2016-02-13T06:38:26.860Z,4.56
2016-02-13T06:39:26.879Z,4.55
2016-02-13T06:40:26.897Z,4.6
2016-02-13T06:41:26.899Z,4.53
2016-02-13T06:42:26.934Z,4.53
2016-02-13T06:43:26.920Z,4.59
2016-02-13T06:44:26.955Z,4.53
2016-02-13T06:45:26.957Z,4.56
2016-02-13T06:46:26.992Z,4.59
2016-02-13T06:47:26.980Z,4.53
2016-02-13T06:48:27.014Z,4.56
2016-02-13T06:49:27.017Z,4.56
2016-02-13T06:50:27.051Z,4.59
2016-02-13T06:51:27.038Z,4.53
2016-02-13T06:52:27.056Z,4.62
2016-02-13T06:53:27.074Z,4.56
2016-02-13T06:54:27.093Z,4.55
2016-02-13T06:55:27.111Z,4.56
2016-02-13T06:56:27.115Z,4.56
2016-02-13T06:57:27.149Z,4.58
2016-02-13T06:58:27.152Z,4.58
2016-02-13T06:59:27.170Z,4.52
2016-02-13T07:00:27.172Z,4.59
2016-02-13T07:01:27.222Z,4.58
2016-02-13T07:02:27.321Z,4.52
2016-02-13T07:03:27.213Z,4.52
2016-02-13T07:04:27.232Z,4.6
2016-02-13T07:05:27.250Z,4.58
2016-02-13T07:06:27.269Z,4.58
2016-02-13T07:07:27.272Z,4.52
2016-02-13T07:08:27.305Z,4.6
2016-02-13T07:09:27.308Z,4.5
2016-02-13T07:10:27.342Z,4.59
2016-02-13T07:11:27.329Z,4.6
2016-02-13T07:12:27.348Z,4.55
2016-02-13T07:13:27.367Z,4.62
2016-02-13T07:14:27.370Z,4.56
2016-02-13T07:15:27.389Z,4.62
2016-02-13T07:16:27.408Z,4.59
2016-02-13T07:17:27.411Z,4.6
2016-02-13T07:18:27.459Z,4.6
2016-02-13T07:19:27.447Z,4.56
2016-02-13T07:20:27.465Z,4.67
2016-02-13T07:21:27.468Z,4.71
2016-02-13T07:22:27.486Z,4.74
2016-02-13T07:23:27.505Z,4.7
2016-02-13T07:24:27.508Z,4.66
2016-02-13T07:25:27.542Z,4.66
2016-02-13T07:26:27.544Z,4.74
2016-02-13T07:27:27.563Z,4.7
2016-02-13T07:28:27.565Z,4.7
2016-02-13T07:29:27.584Z,4.68
2016-02-13T07:30:27.602Z,4.71
2016-02-13T07:31:27.607Z,4.7
2016-02-13T07:32:27.624Z,4.66
2016-02-13T07:33:27.663Z,4.63
2016-02-13T07:34:27.649Z,4.73
2016-02-13T07:35:27.669Z,4.78
2016-02-13T07:36:27.686Z,4.82
2016-02-13T07:37:27.689Z,4.86
2016-02-13T07:38:27.722Z,4.82
2016-02-13T07:39:27.725Z,4.89
2016-02-13T07:40:27.759Z,4.84
2016-02-13T07:41:27.778Z,4.8
2016-02-13T07:42:27.767Z,4.78
2016-02-13T07:43:27.800Z,4.89
2016-02-13T07:44:27.786Z,4.93
2016-02-13T07:45:27.821Z,4.94
2016-02-13T07:46:27.823Z,4.86
2016-02-13T07:47:27.842Z,4.87
2016-02-13T07:48:27.845Z,4.86
2016-02-13T07:49:27.878Z,4.9
2016-02-13T07:50:27.897Z,4.92
2016-02-13T07:51:27.902Z,4.93
2016-02-13T07:52:27.904Z,4.97
2016-02-13T07:53:27.938Z,4.92
2016-02-13T07:54:27.941Z,5.04
2016-02-13T07:55:27.991Z,4.99
2016-02-13T07:56:27.962Z,5.02
2016-02-13T07:57:27.980Z,4.92
2016-02-13T07:58:28.014Z,5.02
2016-02-13T07:59:28.032Z,4.97
2016-02-13T08:00:28.021Z,5.02
2016-02-13T08:01:28.038Z,5.08
2016-02-13T08:02:28.061Z,5.08
2016-02-13T08:03:28.064Z,5.14
2016-02-13T08:04:28.123Z,5.08
2016-02-13T08:05:28.094Z,5.18
2016-02-13T08:06:28.115Z,5.12
2016-02-13T08:07:28.148Z,5.17
2016-02-13T08:08:28.136Z,5.18
2016-02-13T08:09:28.170Z,5.18
2016-02-13T08:10:28.173Z,5.23
2016-02-13T08:11:28.190Z,5.26
2016-02-13T08:12:28.209Z,5.23
2016-02-13T08:13:28.212Z,5.28
2016-02-13T08:14:28.231Z,5.29
2016-02-13T08:15:28.248Z,5.28
2016-02-13T08:16:28.267Z,5.41
2016-02-13T08:17:28.286Z,5.32
2016-02-13T08:18:28.289Z,5.35
2016-02-13T08:19:28.308Z,5.47
2016-02-13T08:20:28.312Z,5.36
2016-02-13T08:21:28.345Z,5.48
2016-02-13T08:22:28.348Z,5.47
2016-02-13T08:23:28.366Z,5.57
2016-02-13T08:24:28.369Z,5.5
2016-02-13T08:25:28.387Z,5.62
2016-02-13T08:26:28.408Z,5.72
2016-02-13T08:27:28.427Z,5.72
2016-02-13T08:28:28.444Z,5.76
2016-02-13T08:29:28.449Z,5.8
2016-02-13T08:30:28.452Z,5.86
2016-02-13T08:31:28.472Z,5.9
2016-02-13T08:32:28.490Z,5.91
2016-02-13T08:33:28.509Z,5.94
2016-02-13T08:34:28.527Z,6.04
2016-02-13T08:35:28.532Z,5.98
2016-02-13T08:36:28.555Z,6.08
2016-02-13T08:37:28.574Z,6.08
2016-02-13T08:38:28.591Z,6.14
2016-02-13T08:39:28.593Z,6.16
2016-02-13T08:40:28.612Z,6.22
2016-02-13T08:41:28.631Z,6.3
2016-02-13T08:42:28.634Z,6.28
2016-02-13T08:43:28.652Z,6.31
2016-02-13T08:44:28.687Z,6.36
2016-02-13T08:45:28.690Z,6.35
2016-02-13T08:46:28.694Z,6.48
2016-02-13T08:47:28.712Z,6.52
2016-02-13T08:48:28.809Z,6.48
2016-02-13T08:49:28.749Z,6.56
2016-02-13T08:50:28.767Z,6.54
2016-02-13T08:51:28.770Z,6.59
2016-02-13T08:52:28.788Z,6.6
2016-02-13T08:53:28.822Z,6.57
2016-02-13T08:54:28.825Z,6.66
2016-02-13T08:55:28.830Z,6.66
2016-02-13T08:56:28.847Z,6.69
2016-02-13T08:57:28.882Z,6.64
2016-02-13T08:58:28.884Z,6.66
2016-02-13T08:59:28.903Z,6.67
2016-02-13T09:00:29.046Z,6.72
2016-02-13T09:01:29.080Z,6.66
2016-02-13T09:02:28.944Z,6.77
2016-02-13T09:03:28.964Z,6.72
2016-02-13T09:04:28.968Z,6.7
2016-02-13T09:05:28.987Z,6.78
2016-02-13T09:06:29.004Z,6.7
2016-02-13T09:07:29.023Z,6.75
2016-02-13T09:08:28.869Z,6.75
2016-02-13T09:09:29.044Z,6.74
2016-02-13T09:10:29.078Z,6.72
2016-02-13T09:11:29.081Z,6.79
2016-02-13T09:12:29.098Z,6.78
2016-02-13T09:13:29.118Z,6.81
2016-02-13T09:14:29.120Z,6.79
2016-02-13T09:15:29.155Z,6.82
2016-02-13T09:16:29.157Z,6.84
2016-02-13T09:17:29.192Z,6.78
2016-02-13T09:18:29.178Z,6.81
2016-02-13T09:19:29.197Z,6.84
2016-02-13T09:20:29.215Z,6.85
2016-02-13T09:21:29.234Z,6.84
2016-02-13T09:22:29.252Z,6.92
2016-02-13T09:23:29.270Z,6.89
2016-02-13T09:24:29.273Z,6.89
2016-02-13T09:25:29.291Z,6.92
2016-02-13T09:26:29.309Z,7.03
2016-02-13T09:27:29.328Z,6.95
2016-02-13T09:28:29.347Z,7.11
2016-02-13T09:29:29.364Z,7.07
2016-02-13T09:30:29.368Z,7.13
2016-02-13T09:31:29.386Z,7.14
2016-02-13T09:32:29.407Z,7.1
2016-02-13T09:33:29.427Z,7.18
2016-02-13T09:34:29.446Z,7.14
2016-02-13T09:35:29.448Z,7.14
2016-02-13T09:36:29.466Z,7.2
2016-02-13T09:37:29.485Z,7.17
2016-02-13T09:38:29.487Z,7.18
2016-02-13T09:39:29.521Z,7.18
2016-02-13T09:40:29.540Z,7.13
2016-02-13T09:41:29.385Z,7.2
2016-02-13T09:42:29.560Z,7.2
2016-02-13T09:43:29.563Z,7.23
2016-02-13T09:44:29.581Z,7.18
2016-02-13T09:45:29.616Z,7.36
2016-02-13T09:46:29.618Z,7.31
2016-02-13T09:47:29.668Z,7.33
2016-02-13T09:48:29.656Z,7.36
2016-02-13T09:49:29.675Z,7.33
2016-02-13T09:50:29.694Z,7.33
2016-02-13T09:51:29.822Z,7.43
2016-02-13T09:52:29.716Z,7.43
2016-02-13T09:53:29.734Z,7.5
2016-02-13T09:54:29.768Z,7.53
2016-02-13T09:55:29.754Z,7.53
2016-02-13T09:56:29.773Z,7.58
2016-02-13T09:57:29.791Z,7.63
2016-02-13T09:58:29.809Z,7.69
2016-02-13T09:59:29.844Z,7.69
2016-02-13T10:00:29.848Z,7.75
2016-02-13T10:01:29.866Z,7.77
2016-02-13T10:02:29.905Z,7.73
2016-02-13T10:03:29.877Z,7.8
2016-02-13T10:04:29.910Z,7.87
2016-02-13T10:05:29.929Z,7.93
2016-02-13T10:06:29.931Z,7.91
2016-02-13T10:07:29.966Z,7.93
2016-02-13T10:08:29.969Z,7.94
2016-02-13T10:09:30.003Z,8.06
2016-02-13T10:10:30.022Z,8.01
2016-02-13T10:11:30.024Z,8.08
2016-02-13T10:12:30.027Z,8.06
2016-02-13T10:13:30.060Z,8.13
2016-02-13T10:14:30.063Z,8.12
2016-02-13T10:15:30.082Z,8.16
2016-02-13T10:16:30.085Z,8.12
2016-02-13T10:17:30.119Z,8.18
2016-02-13T10:18:30.169Z,8.24
2016-02-13T10:19:30.172Z,8.2
2016-02-13T10:20:30.159Z,8.2
2016-02-13T10:21:30.177Z,8.2
2016-02-13T10:22:30.210Z,8.27
2016-02-13T10:23:30.213Z,8.27
2016-02-13T10:24:30.248Z,8.33
2016-02-13T10:25:30.251Z,8.33
2016-02-13T10:26:30.269Z,8.33
2016-02-13T10:27:30.289Z,8.36
2016-02-13T10:28:30.306Z,8.33
2016-02-13T10:29:30.294Z,8.42
2016-02-13T10:30:30.327Z,8.48
2016-02-13T10:31:30.330Z,8.49
2016-02-13T10:32:30.351Z,8.51
2016-02-13T10:33:30.368Z,8.51
2016-02-13T10:34:30.387Z,8.53
2016-02-13T10:35:30.405Z,8.64
2016-02-13T10:36:30.424Z,8.7
2016-02-13T10:37:30.442Z,8.7
2016-02-13T10:38:30.445Z,8.71
2016-02-13T10:39:30.478Z,8.69
2016-02-13T10:40:30.497Z,8.82
2016-02-13T10:41:30.515Z,8.79
2016-02-13T10:42:30.548Z,8.79
2016-02-13T10:43:30.539Z,8.78
2016-02-13T10:44:30.572Z,8.92
2016-02-13T10:45:30.575Z,8.84
2016-02-13T10:46:30.437Z,8.92
2016-02-13T10:47:30.597Z,8.95
2016-02-13T10:48:30.630Z,8.97
2016-02-13T10:49:30.633Z,9.08
2016-02-13T10:50:30.652Z,9.1
2016-02-13T10:51:30.670Z,9.14
2016-02-13T10:52:30.690Z,9.13
2016-02-13T10:53:30.723Z,9.11
2016-02-13T10:54:30.726Z,9.23
2016-02-13T10:55:30.745Z,9.21
2016-02-13T10:56:30.748Z,9.29
2016-02-13T10:57:30.782Z,9.23
2016-02-13T10:58:30.785Z,9.26
2016-02-13T10:59:30.835Z,9.41
2016-02-13T11:00:30.821Z,9.36
2016-02-13T11:01:30.839Z,9.43
2016-02-13T11:02:30.861Z,9.47
2016-02-13T11:03:30.865Z,9.44
2016-02-13T11:04:30.898Z,9.41
2016-02-13T11:05:30.902Z,9.41
2016-02-13T11:06:30.920Z,9.44
2016-02-13T11:07:30.953Z,9.48
2016-02-13T11:08:30.957Z,9.59
2016-02-13T11:09:30.991Z,9.56
2016-02-13T11:10:30.994Z,9.55
2016-02-13T11:11:31.027Z,9.56
2016-02-13T11:12:31.032Z,9.65
2016-02-13T11:13:31.034Z,9.65
2016-02-13T11:14:31.068Z,9.65
2016-02-13T11:15:31.071Z,9.66
2016-02-13T11:16:31.105Z,9.77
2016-02-13T11:17:31.123Z,9.69
2016-02-13T11:18:31.141Z,9.76
2016-02-13T11:19:31.144Z,9.82
2016-02-13T11:20:31.162Z,9.8
2016-02-13T11:21:31.198Z,9.86
2016-02-13T11:22:31.216Z,9.91
2016-02-13T11:23:31.235Z,9.89
2016-02-13T11:24:31.222Z,9.92
2016-02-13T11:25:31.255Z,9.91
2016-02-13T11:26:31.274Z,9.92
2016-02-13T11:27:31.293Z,10.02
2016-02-13T11:28:31.310Z,9.98
2016-02-13T11:29:31.313Z,10.1
2016-02-13T11:30:31.364Z,10.1
2016-02-13T11:31:31.397Z,10.1
2016-02-13T11:32:31.385Z,10.1
2016-02-13T11:33:31.390Z,10.15
2016-02-13T11:34:31.407Z,10.2
2016-02-13T11:35:31.426Z,10.22
2016-02-13T11:36:31.444Z,10.23
2016-02-13T11:37:31.462Z,10.23
2016-02-13T11:38:31.482Z,10.31
2016-02-13T11:39:31.500Z,10.33
2016-02-13T11:40:31.518Z,10.34
2016-02-13T11:41:31.568Z,10.28
2016-02-13T11:42:31.571Z,10.26
2016-02-13T11:43:31.589Z,10.42
2016-02-13T11:44:31.608Z,10.37
2016-02-13T11:45:31.611Z,10.42
2016-02-13T11:46:31.629Z,10.44
2016-02-13T11:47:31.648Z,10.38
2016-02-13T11:48:31.667Z,10.48
2016-02-13T11:49:31.686Z,10.46
2016-02-13T11:50:31.703Z,10.41
2016-02-13T11:51:31.706Z,10.42
2016-02-13T11:52:32.225Z,10.51
2016-02-13T11:53:31.758Z,10.53
2016-02-13T11:54:31.777Z,10.56
2016-02-13T11:55:31.795Z,10.59
2016-02-13T11:56:31.815Z,10.56
2016-02-13T11:57:31.818Z,10.56
2016-02-13T11:58:31.851Z,10.64
2016-02-13T11:59:31.871Z,10.63
2016-02-13T12:00:31.889Z,10.67
2016-02-13T12:01:31.908Z,10.63
2016-02-13T12:02:31.926Z,10.69
2016-02-13T12:03:31.931Z,10.67
2016-02-13T12:04:31.949Z,10.69
2016-02-13T12:05:31.972Z,10.74
2016-02-13T12:06:31.990Z,10.71
2016-02-13T12:07:32.009Z,10.82
2016-02-13T12:08:32.042Z,10.76
2016-02-13T12:09:32.045Z,10.78
2016-02-13T12:10:32.064Z,10.75
2016-02-13T12:11:32.097Z,10.84
2016-02-13T12:12:32.116Z,10.75
2016-02-13T12:13:32.135Z,10.81
2016-02-13T12:14:32.153Z,10.79
2016-02-13T12:15:32.156Z,10.82
2016-02-13T12:16:32.176Z,10.89
2016-02-13T12:17:32.194Z,10.81
2016-02-13T12:18:32.228Z,10.79
2016-02-13T12:19:32.247Z,10.92
2016-02-13T12:20:32.265Z,10.9
2016-02-13T12:21:32.299Z,10.96
2016-02-13T12:22:32.303Z,10.86
2016-02-13T12:23:32.305Z,10.96
2016-02-13T12:24:32.339Z,10.96
2016-02-13T12:25:32.339Z,10.96
2016-02-13T12:26:32.357Z,11.02
2016-02-13T12:27:32.375Z,11.04
2016-02-13T12:28:32.413Z,10.99
2016-02-13T12:29:32.431Z,10.97
2016-02-13T12:30:32.433Z,11
2016-02-13T12:31:32.452Z,11
2016-02-13T12:32:32.472Z,10.99
2016-02-13T12:33:32.490Z,10.99
2016-02-13T12:34:32.509Z,11.02
2016-02-13T12:35:32.527Z,11.04
2016-02-13T12:36:32.546Z,10.99
2016-02-13T12:37:32.565Z,10.99
2016-02-13T12:38:32.582Z,11.05
2016-02-13T12:39:32.601Z,11.05
2016-02-13T12:40:32.618Z,11.04
2016-02-13T12:41:32.653Z,11.04
2016-02-13T12:42:32.656Z,11.02
2016-02-13T12:43:32.691Z,10.97
2016-02-13T12:44:32.710Z,11.1
2016-02-13T12:45:32.713Z,11.08
2016-02-13T12:46:32.731Z,11.08
2016-02-13T12:47:32.749Z,11
2016-02-13T12:48:32.768Z,11.1
2016-02-13T12:49:32.772Z,10.99
2016-02-13T12:50:32.775Z,11.07
2016-02-13T12:51:32.780Z,11.11
2016-02-13T12:52:32.783Z,11.04
2016-02-13T12:53:32.779Z,11.07
2016-02-13T12:54:32.824Z,11.04
2016-02-13T12:55:32.822Z,11.02
2016-02-13T12:56:32.834Z,10.99
2016-02-13T12:57:32.848Z,11.04
2016-02-13T12:58:32.864Z,11.07
2016-02-13T12:59:32.880Z,11.04
2016-02-13T13:00:32.913Z,11.02
2016-02-13T13:01:32.914Z,10.97
2016-02-13T13:02:32.930Z,10.96
2016-02-13T13:03:32.951Z,10.94
2016-02-13T13:04:32.963Z,10.94
2016-02-13T13:05:32.997Z,10.93
2016-02-13T13:06:33.008Z,10.96
2016-02-13T13:07:33.011Z,10.94
2016-02-13T13:08:33.044Z,10.99
2016-02-13T13:09:33.062Z,10.96
2016-02-13T13:10:33.064Z,10.97
2016-02-13T13:11:33.097Z,11.02
2016-02-13T13:12:33.116Z,10.97
2016-02-13T13:13:33.133Z,10.92
2016-02-13T13:14:33.152Z,10.99
2016-02-13T13:15:33.202Z,10.94
2016-02-13T13:16:33.423Z,10.96
2016-02-13T13:17:33.441Z,10.96
2016-02-13T13:18:33.241Z,10.94